createdAt,value
2017-05-21T00:00:05.894Z,0
2017-05-21T00:00:46.779Z,0
2017-05-21T00:01:27.671Z,0
2017-05-21T00:02:08.577Z,0
2017-05-21T00:02:49.442Z,0
2017-05-21T00:03:30.336Z,0
2017-05-21T00:04:11.214Z,0
2017-05-21T00:04:52.095Z,0
2017-05-21T00:05:32.989Z,0
2017-05-21T00:06:13.876Z,0
2017-05-21T00:06:54.763Z,0
2017-05-21T00:07:35.652Z,0
2017-05-21T00:08:16.533Z,0
2017-05-21T00:08:57.459Z,0
2017-05-21T00:09:38.341Z,0
2017-05-21T00:10:19.243Z,0
2017-05-21T00:11:00.128Z,0
2017-05-21T00:11:41.025Z,0
2017-05-21T00:12:21.924Z,0
2017-05-21T00:13:02.808Z,0
2017-05-21T00:13:43.683Z,0
2017-05-21T00:14:24.577Z,0
2017-05-21T00:15:05.466Z,0
2017-05-21T00:15:46.350Z,0
2017-05-21T00:16:27.235Z,0
2017-05-21T00:17:08.123Z,0
2017-05-21T00:17:49.017Z,0
2017-05-21T00:18:29.915Z,0
2017-05-21T00:19:10.806Z,0
2017-05-21T00:19:51.683Z,0
2017-05-21T00:20:32.573Z,0
2017-05-21T00:21:13.488Z,0
2017-05-21T00:21:54.371Z,0
2017-05-21T00:22:35.256Z,0
2017-05-21T00:23:16.139Z,0
2017-05-21T00:23:57.040Z,0
2017-05-21T00:24:37.919Z,0
2017-05-21T00:25:18.815Z,0
2017-05-21T00:25:59.684Z,0
2017-05-21T00:26:40.579Z,0
2017-05-21T00:27:21.456Z,0
2017-05-21T00:28:02.349Z,0
2017-05-21T00:28:43.252Z,0
2017-05-21T00:29:24.163Z,0
2017-05-21T00:30:05.044Z,0
2017-05-21T00:30:45.951Z,0
2017-05-21T00:31:26.848Z,0
2017-05-21T00:32:07.743Z,0
2017-05-21T00:32:48.628Z,0
2017-05-21T00:33:29.512Z,0
2017-05-21T00:34:10.406Z,0
2017-05-21T00:34:51.292Z,0
2017-05-21T00:35:32.176Z,0
2017-05-21T00:36:13.079Z,0
2017-05-21T00:36:53.957Z,0
2017-05-21T00:37:34.835Z,0
2017-05-21T00:38:15.737Z,0
2017-05-21T00:38:56.615Z,0
2017-05-21T00:39:37.489Z,0
2017-05-21T00:40:18.379Z,0
2017-05-21T00:40:59.274Z,0
2017-05-21T00:41:40.149Z,0
2017-05-21T00:42:21.060Z,0
2017-05-21T00:43:01.960Z,0
2017-05-21T00:43:42.856Z,0
2017-05-21T00:44:23.763Z,0
2017-05-21T00:45:05.423Z,0
2017-05-21T00:45:46.307Z,0
2017-05-21T00:46:27.202Z,0
2017-05-21T00:47:08.099Z,0
2017-05-21T00:47:48.976Z,0
2017-05-21T00:48:29.855Z,0
2017-05-21T00:49:10.733Z,0
2017-05-21T00:49:51.629Z,0
2017-05-21T00:50:32.515Z,0
2017-05-21T00:51:13.411Z,0
2017-05-21T00:51:54.296Z,0
2017-05-21T00:52:35.181Z,0
2017-05-21T00:53:16.072Z,0
2017-05-21T00:53:56.972Z,0
2017-05-21T00:54:37.855Z,0
2017-05-21T00:55:18.729Z,0
2017-05-21T00:55:59.620Z,0
2017-05-21T00:56:40.508Z,0
2017-05-21T00:57:21.393Z,0
2017-05-21T00:58:02.280Z,0
2017-05-21T00:58:43.171Z,0
2017-05-21T00:59:24.075Z,0
2017-05-21T01:00:04.957Z,0
2017-05-21T01:00:45.845Z,0
2017-05-21T01:01:26.788Z,0
2017-05-21T01:02:07.624Z,0
2017-05-21T01:02:48.511Z,0
2017-05-21T01:03:29.417Z,0
2017-05-21T01:04:10.294Z,0
2017-05-21T01:04:51.179Z,0
2017-05-21T01:05:33.575Z,0
2017-05-21T01:06:14.487Z,0
2017-05-21T01:06:55.376Z,0
2017-05-21T01:07:36.271Z,0
2017-05-21T01:08:17.164Z,0
2017-05-21T01:08:58.049Z,0
2017-05-21T01:09:38.967Z,0
2017-05-21T01:10:20.536Z,0
2017-05-21T01:11:01.446Z,0
2017-05-21T01:11:42.354Z,0
2017-05-21T01:12:23.261Z,0
2017-05-21T01:13:04.171Z,0
2017-05-21T01:13:45.056Z,0
2017-05-21T01:14:25.937Z,0
2017-05-21T01:15:06.832Z,0
2017-05-21T01:15:47.724Z,0
2017-05-21T01:16:28.596Z,0
2017-05-21T01:17:09.480Z,0
2017-05-21T01:17:50.370Z,0
2017-05-21T01:18:31.266Z,0
2017-05-21T01:19:12.144Z,0
2017-05-21T01:19:53.035Z,0
2017-05-21T01:20:33.932Z,0
2017-05-21T01:21:14.828Z,0
2017-05-21T01:21:55.723Z,0
2017-05-21T01:22:36.590Z,0
2017-05-21T01:23:17.472Z,0
2017-05-21T01:23:58.409Z,0
2017-05-21T01:24:39.241Z,0
2017-05-21T01:25:20.141Z,0
2017-05-21T01:26:01.030Z,0
2017-05-21T01:26:41.923Z,0
2017-05-21T01:27:22.818Z,0
2017-05-21T01:28:03.693Z,0
2017-05-21T01:28:44.585Z,0
2017-05-21T01:29:25.473Z,0
2017-05-21T01:30:06.391Z,0
2017-05-21T01:30:47.297Z,0
2017-05-21T01:31:28.178Z,0
2017-05-21T01:32:09.078Z,0
2017-05-21T01:32:49.964Z,0
2017-05-21T01:33:30.907Z,0
2017-05-21T01:34:11.807Z,0
2017-05-21T01:34:52.686Z,0
2017-05-21T01:35:33.571Z,0
2017-05-21T01:36:14.464Z,0
2017-05-21T01:36:55.347Z,0
2017-05-21T01:37:36.233Z,0
2017-05-21T01:38:17.126Z,0
2017-05-21T01:38:58.020Z,0
2017-05-21T01:39:38.899Z,0
2017-05-21T01:40:19.784Z,0
2017-05-21T01:41:00.674Z,0
2017-05-21T01:41:41.557Z,0
2017-05-21T01:42:22.430Z,0
2017-05-21T01:43:03.305Z,0
2017-05-21T01:43:44.209Z,0
2017-05-21T01:44:25.084Z,0
2017-05-21T01:45:05.972Z,0
2017-05-21T01:45:46.861Z,0
2017-05-21T01:46:27.751Z,0
2017-05-21T01:47:08.625Z,0
2017-05-21T01:47:49.523Z,0
2017-05-21T01:48:30.416Z,0
2017-05-21T01:49:11.298Z,0
2017-05-21T01:49:52.174Z,0
2017-05-21T01:50:33.042Z,0
2017-05-21T01:51:13.948Z,0
2017-05-21T01:51:54.837Z,0
2017-05-21T01:52:35.705Z,0
2017-05-21T01:53:16.598Z,0
2017-05-21T01:53:57.505Z,0
2017-05-21T01:54:38.380Z,0
2017-05-21T01:55:19.249Z,0
2017-05-21T01:56:00.136Z,0
2017-05-21T01:56:41.045Z,0
2017-05-21T01:57:21.924Z,0
2017-05-21T01:58:02.814Z,0
2017-05-21T01:58:43.718Z,0
2017-05-21T01:59:24.628Z,0
2017-05-21T02:00:05.533Z,0
2017-05-21T02:00:46.401Z,0
2017-05-21T02:01:27.280Z,0
2017-05-21T02:02:08.166Z,0
2017-05-21T02:02:49.069Z,0
2017-05-21T02:03:29.951Z,0
2017-05-21T02:04:10.836Z,0
2017-05-21T02:04:51.736Z,0
2017-05-21T02:05:32.609Z,0
2017-05-21T02:06:13.499Z,0
2017-05-21T02:06:54.434Z,0
2017-05-21T02:07:35.336Z,0
2017-05-21T02:10:05.430Z,0
2017-05-21T02:10:46.317Z,0
2017-05-21T02:11:27.211Z,0
2017-05-21T02:12:08.093Z,0
2017-05-21T02:12:48.983Z,0
2017-05-21T02:13:29.878Z,0
2017-05-21T02:14:10.772Z,0
2017-05-21T02:14:51.688Z,0
2017-05-21T02:15:32.571Z,0
2017-05-21T02:16:13.459Z,0
2017-05-21T02:16:54.360Z,0
2017-05-21T02:17:35.253Z,0
2017-05-21T02:18:16.132Z,0
2017-05-21T02:18:57.013Z,0
2017-05-21T02:19:37.916Z,0
2017-05-21T02:20:18.795Z,0
2017-05-21T02:20:59.690Z,0
2017-05-21T02:21:40.584Z,4
2017-05-21T02:22:21.472Z,4
2017-05-21T02:23:02.366Z,4
2017-05-21T02:23:43.272Z,4
2017-05-21T02:24:24.157Z,4
2017-05-21T02:25:05.030Z,0
2017-05-21T02:25:45.925Z,0
2017-05-21T02:26:26.814Z,0
2017-05-21T02:27:07.697Z,4
2017-05-21T02:27:48.582Z,4
2017-05-21T02:28:29.477Z,4
2017-05-21T02:29:10.358Z,4
2017-05-21T02:29:51.243Z,4
2017-05-21T02:30:32.158Z,4
2017-05-21T02:31:13.040Z,4
2017-05-21T02:31:53.925Z,4
2017-05-21T02:32:34.797Z,8
2017-05-21T02:33:15.692Z,8
2017-05-21T02:33:56.566Z,4
2017-05-21T02:34:37.459Z,8
2017-05-21T02:35:18.354Z,4
2017-05-21T02:35:59.240Z,8
2017-05-21T02:36:40.106Z,12
2017-05-21T02:37:21.006Z,8
2017-05-21T02:38:01.887Z,8
2017-05-21T02:38:42.771Z,12
2017-05-21T02:39:23.665Z,12
2017-05-21T02:40:04.558Z,16
2017-05-21T02:40:45.458Z,16
2017-05-21T02:41:26.328Z,16
2017-05-21T02:42:07.227Z,16
2017-05-21T02:42:48.120Z,20
2017-05-21T02:43:28.998Z,20
2017-05-21T02:44:09.888Z,24
2017-05-21T02:44:50.785Z,24
2017-05-21T02:45:31.660Z,28
2017-05-21T02:46:12.542Z,28
2017-05-21T02:46:53.431Z,32
2017-05-21T02:47:34.336Z,32
2017-05-21T02:48:15.216Z,36
2017-05-21T02:48:56.107Z,40
2017-05-21T02:49:36.997Z,40
2017-05-21T02:50:17.880Z,44
2017-05-21T02:50:58.780Z,48
2017-05-21T02:51:39.641Z,48
2017-05-21T02:52:20.543Z,52
2017-05-21T02:53:01.454Z,56
2017-05-21T02:53:42.340Z,60
2017-05-21T02:54:23.233Z,60
2017-05-21T02:55:04.115Z,68
2017-05-21T02:55:45.006Z,72
2017-05-21T02:56:25.905Z,76
2017-05-21T02:57:06.775Z,80
2017-05-21T02:57:47.678Z,84
2017-05-21T02:58:28.562Z,88
2017-05-21T02:59:09.449Z,96
2017-05-21T02:59:50.348Z,96
2017-05-21T03:00:31.239Z,104
2017-05-21T03:01:12.133Z,112
2017-05-21T03:01:53.029Z,116
2017-05-21T03:02:33.921Z,124
2017-05-21T03:03:14.807Z,124
2017-05-21T03:03:55.703Z,132
2017-05-21T03:04:36.594Z,140
2017-05-21T03:05:17.486Z,148
2017-05-21T03:05:58.375Z,152
2017-05-21T03:06:39.256Z,160
2017-05-21T03:07:20.141Z,168
2017-05-21T03:08:01.024Z,176
2017-05-21T03:08:41.925Z,184
2017-05-21T03:09:22.810Z,192
2017-05-21T03:10:03.696Z,204
2017-05-21T03:10:44.584Z,212
2017-05-21T03:11:25.484Z,224
2017-05-21T03:12:06.361Z,236
2017-05-21T03:12:47.244Z,248
2017-05-21T03:13:28.135Z,256
2017-05-21T03:14:09.042Z,268
2017-05-21T03:14:49.941Z,280
2017-05-21T03:15:30.836Z,292
2017-05-21T03:16:12.579Z,304
2017-05-21T03:16:53.474Z,316
2017-05-21T03:17:34.359Z,332
2017-05-21T03:18:15.261Z,344
2017-05-21T03:18:56.151Z,352
2017-05-21T03:19:37.032Z,368
2017-05-21T03:20:17.917Z,376
2017-05-21T03:20:58.793Z,392
2017-05-21T03:23:33.113Z,440
2017-05-21T03:24:14.051Z,456
2017-05-21T03:24:54.884Z,464
2017-05-21T03:25:35.763Z,484
2017-05-21T03:26:16.657Z,496
2017-05-21T03:26:57.556Z,508
2017-05-21T03:27:38.437Z,524
2017-05-21T03:28:19.323Z,540
2017-05-21T03:29:00.207Z,556
2017-05-21T03:29:41.092Z,568
2017-05-21T03:30:21.974Z,584
2017-05-21T03:31:02.861Z,600
2017-05-21T03:31:43.744Z,612
2017-05-21T03:32:24.626Z,632
2017-05-21T03:33:05.511Z,648
2017-05-21T03:33:46.403Z,664
2017-05-21T03:34:27.287Z,680
2017-05-21T03:35:08.189Z,692
2017-05-21T03:35:49.090Z,704
2017-05-21T03:36:29.977Z,724
2017-05-21T03:37:10.866Z,736
2017-05-21T03:37:51.759Z,756
2017-05-21T03:38:32.648Z,772
2017-05-21T03:39:13.541Z,792
2017-05-21T03:39:54.422Z,808
2017-05-21T03:40:35.306Z,824
2017-05-21T03:41:16.190Z,836
2017-05-21T03:41:57.076Z,856
2017-05-21T03:42:37.973Z,872
2017-05-21T03:43:18.845Z,892
2017-05-21T03:43:59.720Z,912
2017-05-21T03:44:40.608Z,928
2017-05-21T03:45:21.503Z,948
2017-05-21T03:46:02.375Z,964
2017-05-21T03:46:43.256Z,984
2017-05-21T03:47:24.143Z,996
2017-05-21T03:48:05.026Z,1016
2017-05-21T03:48:45.908Z,1028
2017-05-21T03:49:26.785Z,1052
2017-05-21T03:50:07.673Z,1068
2017-05-21T03:50:48.570Z,1088
2017-05-21T03:51:29.458Z,1108
2017-05-21T03:52:10.350Z,1128
2017-05-21T03:52:51.250Z,1140
2017-05-21T03:53:32.138Z,1160
2017-05-21T03:54:13.044Z,1172
2017-05-21T03:54:53.984Z,1184
2017-05-21T03:55:34.874Z,1208
2017-05-21T03:56:15.748Z,1228
2017-05-21T03:56:56.632Z,1252
2017-05-21T03:57:37.518Z,1276
2017-05-21T03:58:18.406Z,1296
2017-05-21T03:58:59.303Z,1308
2017-05-21T03:59:40.197Z,1336
2017-05-21T04:00:21.085Z,1352
2017-05-21T04:01:01.976Z,1372
2017-05-21T04:01:42.855Z,1384
2017-05-21T04:02:23.750Z,1404
2017-05-21T04:03:04.652Z,1432
2017-05-21T04:03:45.546Z,1448
2017-05-21T04:04:26.436Z,1488
2017-05-21T04:05:07.328Z,1508
2017-05-21T04:05:48.222Z,1528
2017-05-21T04:06:29.112Z,1540
2017-05-21T04:07:10.004Z,1552
2017-05-21T04:07:50.898Z,1572
2017-05-21T04:08:31.772Z,1588
2017-05-21T04:09:12.662Z,1604
2017-05-21T04:09:53.554Z,1624
2017-05-21T04:10:34.444Z,1640
2017-05-21T04:11:15.333Z,1664
2017-05-21T04:11:56.247Z,1684
2017-05-21T04:12:37.125Z,1708
2017-05-21T04:13:18.022Z,1724
2017-05-21T04:13:58.904Z,1752
2017-05-21T04:14:39.779Z,1764
2017-05-21T04:15:20.657Z,1792
2017-05-21T04:16:01.546Z,1800
2017-05-21T04:16:42.434Z,1824
2017-05-21T04:17:23.346Z,1836
2017-05-21T04:18:04.241Z,1864
2017-05-21T04:18:45.131Z,1880
2017-05-21T04:19:26.036Z,1892
2017-05-21T04:20:06.922Z,1904
2017-05-21T04:20:47.831Z,1932
2017-05-21T04:21:28.722Z,1940
2017-05-21T04:22:09.610Z,1964
2017-05-21T04:22:50.486Z,1980
2017-05-21T04:23:31.364Z,1992
2017-05-21T04:24:12.256Z,1996
2017-05-21T04:24:53.143Z,2024
2017-05-21T04:25:34.034Z,2040
2017-05-21T04:26:14.927Z,2040
2017-05-21T04:26:55.812Z,2080
2017-05-21T04:27:36.705Z,2080
2017-05-21T04:28:17.600Z,2128
2017-05-21T04:28:58.481Z,2132
2017-05-21T04:29:39.377Z,2164
2017-05-21T04:30:20.277Z,2160
2017-05-21T04:31:01.156Z,2192
2017-05-21T04:31:42.045Z,2188
2017-05-21T04:32:22.934Z,2200
2017-05-21T04:33:03.828Z,2232
2017-05-21T04:33:44.705Z,2248
2017-05-21T04:34:25.595Z,2268
2017-05-21T04:35:06.493Z,2276
2017-05-21T04:35:47.379Z,2280
2017-05-21T04:36:28.297Z,2300
2017-05-21T04:37:09.175Z,2324
2017-05-21T04:37:50.079Z,2340
2017-05-21T04:38:30.963Z,2380
2017-05-21T04:39:11.856Z,2392
2017-05-21T04:39:52.737Z,2412
2017-05-21T04:40:33.625Z,2440
2017-05-21T04:41:14.522Z,2452
2017-05-21T04:41:55.405Z,2484
2017-05-21T04:42:36.294Z,2484
2017-05-21T04:43:17.170Z,2532
2017-05-21T04:43:58.061Z,2524
2017-05-21T04:44:38.958Z,2584
2017-05-21T04:45:19.849Z,2592
2017-05-21T04:46:00.738Z,2628
2017-05-21T04:46:41.625Z,2640
2017-05-21T04:47:22.514Z,2668
2017-05-21T04:48:03.407Z,2684
2017-05-21T04:48:44.297Z,2716
2017-05-21T04:49:25.183Z,2724
2017-05-21T04:50:06.080Z,2748
2017-05-21T04:50:46.971Z,2796
2017-05-21T04:51:27.864Z,2792
2017-05-21T04:52:08.758Z,2840
2017-05-21T04:52:49.642Z,2832
2017-05-21T04:53:30.530Z,2876
2017-05-21T04:54:11.426Z,2884
2017-05-21T04:54:52.321Z,2940
2017-05-21T04:55:33.204Z,2948
2017-05-21T04:56:14.118Z,2992
2017-05-21T04:56:55.009Z,2988
2017-05-21T04:57:35.900Z,3024
2017-05-21T04:58:16.801Z,3028
2017-05-21T04:58:57.680Z,3028
2017-05-21T04:59:38.569Z,3052
2017-05-21T05:00:19.464Z,3068
2017-05-21T05:01:00.350Z,3096
2017-05-21T05:01:41.231Z,3124
2017-05-21T05:02:22.116Z,3160
2017-05-21T05:03:03.016Z,3180
2017-05-21T05:03:43.909Z,3192
2017-05-21T05:04:24.800Z,3208
2017-05-21T05:05:05.693Z,3208
2017-05-21T05:05:46.567Z,3224
2017-05-21T05:06:27.448Z,3244
2017-05-21T05:07:08.337Z,3272
2017-05-21T05:07:49.238Z,3308
2017-05-21T05:08:30.124Z,3340
2017-05-21T05:09:11.013Z,3372
2017-05-21T05:09:51.905Z,3408
2017-05-21T05:10:32.794Z,3424
2017-05-21T05:11:13.681Z,3452
2017-05-21T05:11:54.574Z,3480
2017-05-21T05:12:35.490Z,3500
2017-05-21T05:13:16.389Z,3532
2017-05-21T05:13:57.313Z,3544
2017-05-21T05:14:38.164Z,3572
2017-05-21T05:15:19.108Z,3592
2017-05-21T05:15:59.999Z,3620
2017-05-21T05:16:40.898Z,3656
2017-05-21T05:17:21.785Z,3692
2017-05-21T05:18:02.718Z,3732
2017-05-21T05:18:43.603Z,3804
2017-05-21T05:19:24.487Z,3804
2017-05-21T05:20:05.384Z,3856
2017-05-21T05:20:46.307Z,3856
2017-05-21T05:21:27.204Z,3896
2017-05-21T05:22:08.091Z,3912
2017-05-21T05:22:48.981Z,3968
2017-05-21T05:23:29.869Z,3972
2017-05-21T05:24:10.773Z,4012
2017-05-21T05:24:51.677Z,4024
2017-05-21T05:25:32.592Z,4060
2017-05-21T05:26:13.478Z,4108
2017-05-21T05:26:54.366Z,4116
2017-05-21T05:27:35.266Z,4152
2017-05-21T05:28:16.146Z,4164
2017-05-21T05:28:57.036Z,4200
2017-05-21T05:29:37.946Z,4228
2017-05-21T05:30:18.820Z,4264
2017-05-21T05:30:59.722Z,4280
2017-05-21T05:31:40.718Z,4308
2017-05-21T05:32:21.600Z,4352
2017-05-21T05:33:02.492Z,4392
2017-05-21T05:33:43.390Z,4420
2017-05-21T05:34:24.277Z,4440
2017-05-21T05:35:05.161Z,4472
2017-05-21T05:35:46.061Z,4500
2017-05-21T05:36:26.950Z,4520
2017-05-21T05:37:07.842Z,4544
2017-05-21T05:37:48.740Z,4568
2017-05-21T05:38:29.604Z,4588
2017-05-21T05:39:10.484Z,4624
2017-05-21T05:39:51.401Z,4652
2017-05-21T05:40:32.347Z,4692
2017-05-21T05:41:13.196Z,4712
2017-05-21T05:41:54.167Z,4740
2017-05-21T05:42:34.990Z,4752
2017-05-21T05:43:15.871Z,4768
2017-05-21T05:43:56.769Z,4780
2017-05-21T05:44:37.651Z,4804
2017-05-21T05:45:18.533Z,4864
2017-05-21T05:45:59.415Z,4908
2017-05-21T05:46:40.301Z,4940
2017-05-21T05:47:21.188Z,4984
2017-05-21T05:48:02.095Z,5020
2017-05-21T05:48:42.982Z,5064
2017-05-21T05:49:23.878Z,5092
2017-05-21T05:50:04.766Z,5120
2017-05-21T05:50:45.660Z,5176
2017-05-21T05:51:26.549Z,5216
2017-05-21T05:52:07.457Z,5284
2017-05-21T05:52:48.332Z,5348
2017-05-21T05:53:29.224Z,5420
2017-05-21T05:54:10.112Z,5492
2017-05-21T05:54:51.005Z,5540
2017-05-21T05:55:31.891Z,5628
2017-05-21T05:56:12.785Z,5704
2017-05-21T05:56:53.689Z,5812
2017-05-21T05:57:34.567Z,5892
2017-05-21T05:58:15.499Z,5984
2017-05-21T05:58:56.381Z,6088
2017-05-21T05:59:37.266Z,6212
2017-05-21T06:00:18.156Z,6284
2017-05-21T06:00:59.049Z,6444
2017-05-21T06:01:39.934Z,6548
2017-05-21T06:02:20.824Z,6676
2017-05-21T06:03:01.713Z,6828
2017-05-21T06:03:42.606Z,6964
2017-05-21T06:04:23.494Z,7088
2017-05-21T06:05:04.385Z,7248
2017-05-21T06:05:45.277Z,7380
2017-05-21T06:06:26.174Z,7540
2017-05-21T06:07:07.065Z,7692
2017-05-21T06:07:47.957Z,7908
2017-05-21T06:08:28.851Z,8036
2017-05-21T06:09:09.742Z,8252
2017-05-21T06:09:50.634Z,8476
2017-05-21T06:10:31.528Z,8640
2017-05-21T06:11:12.420Z,8824
2017-05-21T06:11:53.309Z,9008
2017-05-21T06:12:34.193Z,9128
2017-05-21T06:13:15.087Z,9268
2017-05-21T06:13:56.002Z,9344
2017-05-21T06:14:36.906Z,9476
2017-05-21T06:15:17.799Z,9584
2017-05-21T06:15:58.698Z,9712
2017-05-21T06:16:39.605Z,9804
2017-05-21T06:17:20.499Z,9984
2017-05-21T06:18:01.405Z,10136
2017-05-21T06:18:42.294Z,10304
2017-05-21T06:19:23.181Z,10452
2017-05-21T06:20:04.084Z,10556
2017-05-21T06:20:44.986Z,10700
2017-05-21T06:21:25.878Z,10808
2017-05-21T06:22:07.462Z,10832
2017-05-21T06:22:48.361Z,10904
2017-05-21T06:23:29.252Z,10996
2017-05-21T06:24:10.150Z,11072
2017-05-21T06:24:51.043Z,11104
2017-05-21T06:25:31.941Z,11100
2017-05-21T06:26:12.834Z,11156
2017-05-21T06:26:53.735Z,11240
2017-05-21T06:27:34.632Z,11272
2017-05-21T06:28:15.532Z,11320
2017-05-21T06:28:56.429Z,11364
2017-05-21T06:29:37.331Z,11324
2017-05-21T06:30:18.227Z,11392
2017-05-21T06:30:59.120Z,11480
2017-05-21T06:31:40.023Z,11488
2017-05-21T06:32:20.917Z,11560
2017-05-21T06:33:01.826Z,11528
2017-05-21T06:33:42.725Z,11548
2017-05-21T06:34:23.617Z,11592
2017-05-21T06:35:04.514Z,11608
2017-05-21T06:35:45.409Z,11628
2017-05-21T06:36:26.312Z,11704
2017-05-21T06:37:07.221Z,11684
2017-05-21T06:37:48.120Z,11652
2017-05-21T06:38:29.018Z,11700
2017-05-21T06:39:09.927Z,11736
2017-05-21T06:39:50.835Z,11788
2017-05-21T06:40:31.811Z,11788
2017-05-21T06:41:12.647Z,11820
2017-05-21T06:41:53.565Z,11820
2017-05-21T06:42:34.461Z,11900
2017-05-21T06:43:15.363Z,11904
2017-05-21T06:43:56.274Z,11924
2017-05-21T06:44:37.168Z,11936
2017-05-21T06:45:18.081Z,11936
2017-05-21T06:45:58.985Z,11928
2017-05-21T06:46:39.910Z,11944
2017-05-21T06:47:20.811Z,11948
2017-05-21T06:48:01.725Z,11984
2017-05-21T06:48:42.650Z,12020
2017-05-21T06:49:23.588Z,12036
2017-05-21T06:50:04.513Z,12076
2017-05-21T06:50:45.428Z,12100
2017-05-21T06:51:26.343Z,12160
2017-05-21T06:52:07.246Z,12108
2017-05-21T06:52:48.185Z,12172
2017-05-21T06:53:29.049Z,12208
2017-05-21T06:54:09.955Z,12216
2017-05-21T06:54:50.861Z,12236
2017-05-21T06:55:31.760Z,12236
2017-05-21T06:56:12.660Z,12256
2017-05-21T06:56:53.555Z,12272
2017-05-21T06:57:34.452Z,12252
2017-05-21T06:58:15.377Z,12288
2017-05-21T06:58:56.295Z,12356
2017-05-21T06:59:37.186Z,12404
2017-05-21T07:00:18.090Z,12464
2017-05-21T07:00:59.014Z,12464
2017-05-21T07:01:39.913Z,12464
2017-05-21T07:02:20.812Z,12464
2017-05-21T07:03:01.717Z,12544
2017-05-21T07:03:42.628Z,12492
2017-05-21T07:04:23.535Z,12540
2017-05-21T07:05:04.439Z,12532
2017-05-21T07:05:45.353Z,12572
2017-05-21T07:06:26.264Z,12664
2017-05-21T07:07:07.169Z,12728
2017-05-21T07:07:48.080Z,12736
2017-05-21T07:08:28.973Z,12844
2017-05-21T07:09:09.944Z,12840
2017-05-21T07:09:50.855Z,13068
2017-05-21T07:10:31.756Z,13256
2017-05-21T07:11:12.653Z,13652
2017-05-21T07:11:53.555Z,14528
2017-05-21T07:12:34.473Z,18976
2017-05-21T07:13:15.381Z,28736
2017-05-21T07:13:56.286Z,40128
2017-05-21T07:14:37.199Z,48384
2017-05-21T07:15:18.105Z,50496
2017-05-21T07:15:59.015Z,50816
2017-05-21T07:16:39.912Z,51552
2017-05-21T07:17:20.835Z,52896
2017-05-21T07:18:01.740Z,54080
2017-05-21T07:18:42.646Z,55360
2017-05-21T07:19:23.562Z,57536
2017-05-21T07:20:04.471Z,60352
2017-05-21T07:20:45.380Z,57856
2017-05-21T07:21:26.288Z,55584
2017-05-21T07:22:07.195Z,54944
2017-05-21T07:22:48.102Z,53408
2017-05-21T07:23:29.013Z,57152
2017-05-21T07:24:09.926Z,57280
2017-05-21T07:24:50.829Z,58848
2017-05-21T07:25:31.742Z,65056
2017-05-21T07:26:12.651Z,63392
2017-05-21T07:26:53.566Z,60704
2017-05-21T07:27:34.467Z,59648
2017-05-21T07:28:15.377Z,58976
2017-05-21T07:28:56.285Z,58304
2017-05-21T07:29:37.189Z,57536
2017-05-21T07:30:18.102Z,58368
2017-05-21T07:30:59.011Z,60512
2017-05-21T07:31:39.921Z,62976
2017-05-21T07:32:20.828Z,64544
2017-05-21T07:33:01.727Z,65760
2017-05-21T07:33:42.634Z,67392
2017-05-21T07:34:23.530Z,67744
2017-05-21T07:35:04.438Z,67968
2017-05-21T07:35:45.351Z,66528
2017-05-21T07:36:26.247Z,65184
2017-05-21T07:37:07.168Z,58880
2017-05-21T07:37:48.077Z,56960
2017-05-21T07:38:28.972Z,53408
2017-05-21T07:39:09.881Z,50592
2017-05-21T07:39:50.784Z,50432
2017-05-21T07:40:31.714Z,51872
2017-05-21T07:41:12.602Z,54400
2017-05-21T07:41:53.514Z,55936
2017-05-21T07:42:34.423Z,57760
2017-05-21T07:43:15.314Z,60800
2017-05-21T07:43:56.244Z,64512
2017-05-21T07:44:37.150Z,67104
2017-05-21T07:45:18.055Z,66528
2017-05-21T07:45:58.958Z,54912
2017-05-21T07:46:39.872Z,37568
2017-05-21T07:47:20.782Z,21696
2017-05-21T07:48:01.693Z,13948
2017-05-21T07:48:42.604Z,13460
2017-05-21T07:49:23.510Z,13276
2017-05-21T07:50:04.406Z,13252
2017-05-21T07:50:45.335Z,13260
2017-05-21T07:51:26.211Z,13316
2017-05-21T07:52:07.114Z,13316
2017-05-21T07:52:48.019Z,13404
2017-05-21T07:53:28.913Z,14044
2017-05-21T07:54:09.807Z,14644
2017-05-21T07:54:50.707Z,14600
2017-05-21T07:55:31.634Z,14544
2017-05-21T07:56:12.510Z,14248
2017-05-21T07:56:53.410Z,14080
2017-05-21T07:57:34.307Z,14516
2017-05-21T07:58:15.214Z,13912
2017-05-21T07:58:56.117Z,13776
2017-05-21T07:59:37.033Z,13768
2017-05-21T08:00:17.943Z,14048
2017-05-21T08:00:58.851Z,14800
2017-05-21T08:01:39.739Z,15168
2017-05-21T08:02:20.633Z,15424
2017-05-21T08:03:01.573Z,14916
2017-05-21T08:03:42.484Z,14556
2017-05-21T08:04:23.423Z,14388
2017-05-21T08:05:04.339Z,15616
2017-05-21T08:05:45.255Z,27072
2017-05-21T08:06:26.202Z,47520
2017-05-21T08:07:07.117Z,67904
2017-05-21T08:07:48.020Z,81568
2017-05-21T08:08:28.918Z,76288
2017-05-21T08:09:09.824Z,73440
2017-05-21T08:09:50.757Z,69920
2017-05-21T08:10:31.673Z,77152
2017-05-21T08:11:12.588Z,84128
2017-05-21T08:11:53.485Z,83328
2017-05-21T08:12:34.399Z,82656
2017-05-21T08:13:15.341Z,81376
2017-05-21T08:13:56.254Z,83328
2017-05-21T08:14:37.153Z,84192
2017-05-21T08:15:18.059Z,87712
2017-05-21T08:15:58.979Z,89952
2017-05-21T08:16:39.886Z,93792
2017-05-21T08:17:20.798Z,100352
2017-05-21T08:18:01.690Z,102464
2017-05-21T08:18:42.606Z,105280
2017-05-21T08:19:23.505Z,103936
2017-05-21T08:20:04.440Z,101088
2017-05-21T08:20:45.338Z,94560
2017-05-21T08:21:26.254Z,74304
2017-05-21T08:22:07.144Z,55648
2017-05-21T08:22:48.061Z,53856
2017-05-21T08:23:28.966Z,67744
2017-05-21T08:24:09.884Z,76128
2017-05-21T08:24:50.789Z,76352
2017-05-21T08:25:31.698Z,73632
2017-05-21T08:26:12.600Z,75200
2017-05-21T08:26:53.505Z,78624
2017-05-21T08:27:34.445Z,78624
2017-05-21T08:28:15.342Z,79968
2017-05-21T08:28:56.233Z,80768
2017-05-21T08:29:37.154Z,87008
2017-05-21T08:30:18.044Z,86880
2017-05-21T08:30:58.970Z,90688
2017-05-21T08:31:39.877Z,90880
2017-05-21T08:32:20.792Z,89312
2017-05-21T08:33:01.731Z,91456
2017-05-21T08:33:42.633Z,79616
2017-05-21T08:34:23.548Z,90496
2017-05-21T08:35:04.457Z,91424
2017-05-21T08:35:45.368Z,81056
2017-05-21T08:36:26.277Z,76800
2017-05-21T08:37:07.189Z,80480
2017-05-21T08:37:48.091Z,85472
2017-05-21T08:38:29.004Z,94976
2017-05-21T08:39:09.893Z,92960
2017-05-21T08:39:50.793Z,91872
2017-05-21T08:40:31.699Z,90336
2017-05-21T08:41:12.607Z,90848
2017-05-21T08:41:53.524Z,90112
2017-05-21T08:42:34.429Z,89056
2017-05-21T08:43:15.362Z,89536
2017-05-21T08:43:56.283Z,92288
2017-05-21T08:44:37.196Z,92928
2017-05-21T08:45:18.118Z,93056
2017-05-21T08:45:59.034Z,94176
2017-05-21T08:46:39.961Z,96256
2017-05-21T08:47:20.878Z,97632
2017-05-21T08:48:01.799Z,96320
2017-05-21T08:48:42.720Z,95104
2017-05-21T08:49:23.644Z,95552
2017-05-21T08:50:04.586Z,93632
2017-05-21T08:50:45.515Z,93984
2017-05-21T08:51:26.431Z,94048
2017-05-21T08:52:07.339Z,94880
2017-05-21T08:52:48.259Z,95936
2017-05-21T08:53:29.172Z,94720
2017-05-21T08:54:10.086Z,93248
2017-05-21T08:54:50.987Z,90400
2017-05-21T08:55:31.890Z,31392
2017-05-21T08:56:12.793Z,75776
2017-05-21T08:56:53.729Z,68192
2017-05-21T08:57:34.637Z,72768
2017-05-21T08:59:44.524Z,70688
2017-05-21T09:00:25.411Z,68960
2017-05-21T09:01:06.316Z,68448
2017-05-21T09:01:47.240Z,70208
2017-05-21T09:02:28.166Z,74304
2017-05-21T09:03:09.085Z,80320
2017-05-21T09:05:18.228Z,95072
2017-05-21T09:05:59.136Z,99456
2017-05-21T09:06:40.045Z,102016
2017-05-21T09:07:20.983Z,104000
2017-05-21T09:08:01.899Z,105056
2017-05-21T09:08:42.799Z,103648
2017-05-21T09:09:23.717Z,100512
2017-05-21T09:10:04.609Z,98016
2017-05-21T09:10:45.518Z,93056
2017-05-21T09:11:26.421Z,90848
2017-05-21T09:12:07.343Z,87072
2017-05-21T09:12:48.254Z,84864
2017-05-21T09:13:29.168Z,81248
2017-05-21T09:14:10.057Z,76800
2017-05-21T09:14:50.971Z,73600
2017-05-21T09:15:31.880Z,69632
2017-05-21T09:16:12.791Z,83040
2017-05-21T09:16:53.683Z,86880
2017-05-21T09:17:34.580Z,85824
2017-05-21T09:18:15.501Z,85376
2017-05-21T09:18:56.429Z,84992
2017-05-21T09:19:37.336Z,83936
2017-05-21T09:20:18.277Z,84576
2017-05-21T09:21:56.693Z,88320
2017-05-21T09:22:37.610Z,89376
2017-05-21T09:23:18.516Z,90976
2017-05-21T09:23:59.431Z,93088